Time;durP1;ratioP1;P1;durP2;ratioP2;P2;SDS_P1;SDS_P2;PMS_P1;PMS_P2;Temp;Humidity;BMP_temperature;BMP_pressure;BME280_temperature;BME280_humidity;BME280_pressure;Samples;Min_cycle;Max_cycle;Signal;HPM_P1;HPM_P2
2023/04/05 00:08:48;;;;;;;4.40;2.90;;;;;;;-1.43;100.00;98096.81;18296997;32;20383;-56
2023/04/05 00:18:51;;;;;;;3.60;2.37;;;;;;;-1.45;100.00;98104.13;18296240;32;20050;-56
2023/04/05 00:28:53;;;;;;;3.27;2.47;;;;;;;-1.53;100.00;98101.56;18295739;32;20050;-56
2023/04/05 00:38:55;;;;;;;4.50;2.83;;;;;;;-1.58;100.00;98102.09;18294410;32;20082;-56
2023/04/05 00:48:58;;;;;;;4.33;2.83;;;;;;;-1.52;100.00;98095.28;18294781;32;20382;-54
2023/04/05 00:59:00;;;;;;;3.93;2.77;;;;;;;-1.61;100.00;98088.41;18294542;32;20058;-57
2023/04/05 01:09:24;;;;;;;5.73;3.23;;;;;;;-1.67;100.00;98083.81;18294313;32;20054;-56
2023/04/05 01:19:28;;;;;;;8.13;3.23;;;;;;;-1.67;100.00;98078.50;18294017;32;20110;-56
2023/04/05 01:29:49;;;;;;;7.37;3.57;;;;;;;-1.65;100.00;98071.19;18292989;32;20062;-57
2023/04/05 01:39:52;;;;;;;6.23;2.90;;;;;;;-1.63;100.00;98069.19;18293102;32;20053;-58
2023/04/05 01:49:54;;;;;;;5.10;3.60;;;;;;;-1.64;100.00;98049.81;18280752;32;20065;-57
2023/04/05 01:59:56;;;;;;;5.00;2.97;;;;;;;-1.58;100.00;98037.63;18303546;32;20050;-57
2023/04/05 02:09:59;;;;;;;5.03;3.20;;;;;;;-1.54;100.00;98037.06;18302412;32;20051;-57
2023/04/05 02:20:01;;;;;;;4.73;3.47;;;;;;;-1.50;100.00;98032.25;18302149;32;20085;-57
2023/04/05 02:30:04;;;;;;;7.07;3.87;;;;;;;-1.46;100.00;98020.25;18301248;32;20070;-56
2023/04/05 02:40:10;;;;;;;3.73;3.30;;;;;;;-1.48;100.00;98010.84;18301061;32;20120;-57
2023/04/05 02:50:13;;;;;;;3.50;2.73;;;;;;;-1.59;100.00;98009.47;18300655;32;20042;-57
2023/04/05 03:00:16;;;;;;;5.93;3.80;;;;;;;-1.70;100.00;98008.09;18299609;32;20140;-55
2023/04/05 03:10:25;;;;;;;5.70;3.63;;;;;;;-1.88;100.00;97997.84;18299583;32;20088;-56
2023/04/05 03:20:27;;;;;;;6.23;4.30;;;;;;;-2.03;100.00;97995.19;18299229;32;20066;-57
2023/04/05 03:30:33;;;;;;;5.87;3.77;;;;;;;-2.13;100.00;98002.59;18285056;32;20054;-58
2023/04/05 03:40:35;;;;;;;7.10;4.30;;;;;;;-2.35;100.00;97994.50;18298097;32;20084;-57
2023/04/05 03:50:37;;;;;;;7.87;4.20;;;;;;;-2.55;100.00;98002.13;18297566;32;20434;-57
2023/04/05 04:00:40;;;;;;;6.70;3.70;;;;;;;-2.67;100.00;97982.34;18297026;32;20468;-57
2023/04/05 04:10:43;;;;;;;4.77;3.50;;;;;;;-2.80;100.00;97983.78;18282922;32;20094;-57
2023/04/05 04:20:46;;;;;;;3.73;3.33;;;;;;;-2.88;100.00;97983.81;18296265;32;20062;-57
2023/04/05 04:30:49;;;;;;;6.23;3.73;;;;;;;-2.89;100.00;97974.25;18295448;32;20049;-57
2023/04/05 04:40:52;;;;;;;5.43;3.50;;;;;;;-3.07;100.00;97978.00;18282047;32;20105;-57
2023/04/05 04:50:56;;;;;;;8.83;4.07;;;;;;;-3.18;100.00;97985.50;18294808;32;20413;-57
2023/04/05 05:00:58;;;;;;;5.27;4.00;;;;;;;-3.30;100.00;97977.97;18294277;32;20066;-57
2023/04/05 05:11:05;;;;;;;7.23;4.50;;;;;;;-3.34;100.00;97989.06;18294196;32;20059;-58
2023/04/05 05:21:07;;;;;;;7.10;4.10;;;;;;;-3.33;100.00;98003.94;18279996;32;20054;-57
2023/04/05 05:31:11;;;;;;;5.67;3.90;;;;;;;-3.32;100.00;98019.63;18302375;32;20391;-57
2023/04/05 05:41:13;;;;;;;4.40;3.90;;;;;;;-3.22;100.00;98021.25;18303895;32;20066;-56
2023/04/05 05:51:17;;;;;;;6.50;5.07;;;;;;;-3.08;100.00;98023.97;18303473;32;20410;-57
2023/04/05 06:01:21;;;;;;;6.87;4.87;;;;;;;-2.81;100.00;98019.19;18303058;32;20118;-57
2023/04/05 06:11:25;;;;;;;6.93;5.20;;;;;;;-2.40;100.00;98032.13;18302558;32;20073;-58
2023/04/05 06:21:28;;;;;;;7.60;4.70;;;;;;;-1.88;100.00;98043.75;18302001;32;20055;-57
2023/04/05 06:31:32;;;;;;;6.23;4.20;;;;;;;-1.38;100.00;98056.47;18301153;32;20379;-57
2023/04/05 06:41:35;;;;;;;10.53;5.97;;;;;;;-0.91;100.00;98060.53;18300087;32;20117;-58
2023/04/05 06:51:37;;;;;;;7.60;5.13;;;;;;;-0.43;100.00;98048.56;18287018;32;20058;-57
2023/04/05 07:01:41;;;;;;;9.70;5.83;;;;;;;-0.04;100.00;98048.09;18300345;32;20070;-58
2023/04/05 07:11:44;;;;;;;12.37;6.03;;;;;;;0.31;100.00;98048.13;18299588;32;20046;-57
2023/04/05 07:21:48;;;;;;;7.57;4.70;;;;;;;0.88;100.00;98056.03;18299156;32;20125;-57
2023/04/05 07:31:50;;;;;;;7.33;5.77;;;;;;;1.44;100.00;98064.81;18298445;32;20117;-57
2023/04/05 07:41:53;;;;;;;9.67;4.77;;;;;;;1.93;100.00;98066.31;18297901;32;20091;-58
2023/04/05 07:51:56;;;;;;;7.33;4.40;;;;;;;2.32;100.00;98070.00;18283845;32;20502;-57
2023/04/05 08:01:59;;;;;;;6.33;4.00;;;;;;;2.76;96.39;98067.69;18283227;32;20050;-57
2023/04/05 08:12:13;;;;;;;5.17;3.90;;;;;;;3.23;88.39;98072.84;18297256;32;20054;-58
2023/04/05 08:22:17;;;;;;;5.80;4.17;;;;;;;3.69;79.70;98070.97;18296237;32;20121;-58
2023/04/05 08:32:20;;;;;;;7.83;4.30;;;;;;;4.04;76.87;98060.62;18280436;32;20414;-57
2023/04/05 08:42:31;;;;;;;7.53;3.60;;;;;;;4.49;75.14;98072.19;18295173;32;20373;-57
2023/04/05 08:52:37;;;;;;;6.17;3.40;;;;;;;4.86;65.82;98069.53;18294992;32;20427;-57
2023/04/05 09:02:44;;;;;;;4.57;2.87;;;;;;;5.09;60.72;98080.41;18280349;32;20114;-57
2023/04/05 09:12:47;;;;;;;5.87;3.43;;;;;;;5.58;64.62;98071.56;18280729;32;20053;-57
2023/04/05 09:22:49;;;;;;;6.10;3.83;;;;;;;6.03;62.28;98073.81;18293622;32;20062;-57
2023/04/05 09:32:53;;;;;;;6.63;3.50;;;;;;;6.18;59.99;98073.37;18293895;32;20456;-58
2023/04/05 09:42:57;;;;;;;8.33;4.30;;;;;;;6.59;57.29;98070.81;18292819;32;20077;-57
2023/04/05 09:53:09;;;;;;;7.43;3.50;;;;;;;6.67;56.01;98072.34;18292473;32;20098;-57
2023/04/05 10:03:12;;;;;;;7.87;3.67;;;;;;;7.00;53.59;98077.06;18292098;32;20113;-58
2023/04/05 10:13:15;;;;;;;5.43;3.43;;;;;;;7.32;52.87;98067.75;18296401;32;20066;-57
2023/04/05 10:23:27;;;;;;;5.37;3.80;;;;;;;7.64;48.80;98065.41;18301868;32;20062;-57
2023/04/05 10:33:44;;;;;;;6.50;3.13;;;;;;;7.87;46.73;98066.38;18301318;32;20064;-58
2023/04/05 10:43:50;;;;;;;5.03;3.00;;;;;;;7.84;47.25;98064.16;18287185;32;20425;-57
2023/04/05 10:53:55;;;;;;;5.20;3.07;;;;;;;8.09;46.42;98056.50;18300682;32;20094;-58
2023/04/05 11:04:11;;;;;;;3.93;3.10;;;;;;;8.61;45.95;98057.34;18300256;32;20050;-57
2023/04/05 11:14:25;;;;;;;6.00;3.23;;;;;;;8.78;43.59;98047.34;18285813;32;20391;-57
2023/04/05 11:24:52;;;;;;;7.07;3.60;;;;;;;8.91;41.98;98056.94;18298480;32;20343;-58
2023/04/05 11:35:05;;;;;;;3.50;2.87;;;;;;;9.18;42.60;98047.28;18298194;32;20417;-58
2023/04/05 11:45:08;;;;;;;9.53;3.93;;;;;;;9.61;41.59;98041.03;18298174;32;20061;-57
2023/04/05 11:55:11;;;;;;;4.63;3.10;;;;;;;9.77;41.84;98039.28;18284216;32;20062;-57
2023/04/05 12:05:14;;;;;;;3.80;2.90;;;;;;;9.44;39.54;98030.31;18296931;32;20058;-58
2023/04/05 12:15:17;;;;;;;5.50;3.33;;;;;;;9.87;42.16;98019.66;18282840;32;20065;-57
2023/04/05 12:25:21;;;;;;;7.13;3.47;;;;;;;10.45;40.77;98008.25;18295894;32;20066;-57
2023/04/05 12:35:31;;;;;;;3.97;2.87;;;;;;;10.61;38.19;98006.44;18280670;32;20508;-57
2023/04/05 12:45:41;;;;;;;4.63;3.40;;;;;;;10.75;38.67;98002.19;18295053;32;20184;-57
2023/04/05 12:55:56;;;;;;;4.37;3.33;;;;;;;11.85;37.63;97994.94;18294702;32;20426;-57
2023/04/05 13:05:58;;;;;;;4.73;3.17;;;;;;;12.09;38.79;97985.47;18293786;32;20054;-56
2023/04/05 13:16:01;;;;;;;5.87;3.00;;;;;;;12.63;37.28;97984.00;18293870;32;20475;-57
2023/04/05 13:26:05;;;;;;;4.67;2.73;;;;;;;13.15;39.95;97971.84;18293486;32;20076;-58
2023/04/05 13:36:08;;;;;;;4.20;2.80;;;;;;;13.19;36.75;97967.50;18279336;32;20499;-57
2023/04/05 13:46:10;;;;;;;5.00;3.40;;;;;;;13.42;33.44;97962.53;18281659;32;20358;-57
2023/04/05 13:56:13;;;;;;;5.25;3.80;;;;;;;13.54;34.95;97954.84;18303488;32;20054;-57
2023/04/05 14:06:16;;;;;;;4.10;2.95;;;;;;;14.30;32.76;97950.94;18302666;32;20468;-58
2023/04/05 14:16:19;;;;;;;4.90;3.20;;;;;;;14.76;32.19;97944.19;18302470;32;20042;-57
2023/04/05 14:26:24;;;;;;;5.03;3.97;;;;;;;14.75;32.39;97927.06;18287690;32;20050;-57
2023/04/05 14:36:27;;;;;;;5.45;3.47;;;;;;;14.63;34.70;97923.94;18301110;32;20336;-57
2023/04/05 14:46:30;;;;;;;5.97;3.33;;;;;;;14.15;33.71;97911.91;18287137;32;20438;-58
2023/04/05 14:56:33;;;;;;;4.55;3.20;;;;;;;13.92;32.49;97904.53;18285425;32;20053;-58
2023/04/05 15:06:36;;;;;;;4.25;3.08;;;;;;;13.66;33.90;97896.59;18285887;32;20084;-58
2023/04/05 15:16:39;;;;;;;4.82;2.85;;;;;;;13.45;31.96;97885.88;18285785;32;20062;-58
2023/04/05 15:26:41;;;;;;;4.13;2.80;;;;;;;13.46;33.68;97879.38;18298938;32;20490;-58
2023/04/05 15:36:44;;;;;;;3.60;2.50;;;;;;;13.68;31.47;97872.69;18298561;32;20109;-58
2023/04/05 15:46:47;;;;;;;3.80;2.50;;;;;;;13.44;30.45;97872.59;18284045;32;20109;-58
2023/04/05 15:56:50;;;;;;;4.40;2.10;;;;;;;13.01;31.22;97873.94;18283898;32;20315;-58
2023/04/05 16:06:54;;;;;;;5.40;2.60;;;;;;;12.77;31.66;97871.09;18283180;32;20133;-58
2023/04/05 16:16:56;;;;;;;5.45;2.22;;;;;;;12.62;34.71;97868.44;18282802;32;20479;-58
2023/04/05 16:26:59;;;;;;;3.50;2.10;;;;;;;12.82;34.95;97865.63;18282223;32;20109;-58
2023/04/05 16:37:02;;;;;;;3.40;2.80;;;;;;;12.53;34.40;97866.31;18281818;32;20050;-58
2023/04/05 16:47:05;;;;;;;2.97;2.10;;;;;;;11.84;34.70;97863.25;18294829;32;20050;-57
2023/04/05 16:57:07;;;;;;;2.40;1.53;;;;;;;11.39;37.59;97848.66;18281623;32;20138;-58
2023/04/05 17:07:10;;;;;;;2.50;1.53;;;;;;;10.95;43.78;97862.66;18279600;32;20370;-57
2023/04/05 17:17:13;;;;;;;2.83;2.00;;;;;;;10.70;45.06;97872.34;18280985;32;20054;-57
2023/04/05 17:27:15;;;;;;;1.77;1.17;;;;;;;10.37;42.02;97858.16;18289600;32;20054;-56
2023/04/05 17:37:18;;;;;;;2.10;1.30;;;;;;;9.58;46.71;97860.66;18304358;32;20097;-58
2023/04/05 17:47:20;;;;;;;2.83;1.60;;;;;;;8.64;48.90;97854.66;18303742;32;20070;-58
2023/04/05 17:57:23;;;;;;;2.17;1.43;;;;;;;7.83;51.04;97858.75;18290433;32;20339;-58
2023/04/05 18:07:26;;;;;;;4.37;1.80;;;;;;;7.03;53.04;97861.53;18303084;32;20085;-57
2023/04/05 18:17:28;;;;;;;2.10;1.37;;;;;;;6.27;56.91;97859.00;18288985;32;20385;-57
2023/04/05 18:27:32;;;;;;;4.17;2.80;;;;;;;5.63;61.90;97865.09;18302192;32;20366;-57
2023/04/05 18:37:35;;;;;;;3.53;2.47;;;;;;;5.05;68.56;97867.47;18301467;32;20495;-57
2023/04/05 18:47:38;;;;;;;6.40;2.57;;;;;;;4.50;75.85;97878.34;18287770;32;20137;-57
2023/04/05 18:57:40;;;;;;;6.47;2.50;;;;;;;4.00;81.76;97884.69;18300562;32;20065;-56
2023/04/05 19:07:43;;;;;;;4.83;3.13;;;;;;;3.55;87.32;97901.78;18300567;32;20081;-58
2023/04/05 19:17:46;;;;;;;7.00;3.67;;;;;;;3.15;91.46;97910.94;18285924;32;20058;-56
2023/04/05 19:27:49;;;;;;;4.07;2.90;;;;;;;2.85;96.28;97906.19;18299120;32;20081;-57
2023/04/05 19:37:52;;;;;;;7.63;4.43;;;;;;;2.58;98.68;97910.00;18298368;32;20084;-57
2023/04/05 19:47:56;;;;;;;5.33;3.37;;;;;;;2.37;100.00;97915.44;18297796;32;20464;-56
2023/04/05 19:58:01;;;;;;;4.13;3.10;;;;;;;2.23;100.00;97923.69;18284275;32;20073;-57
2023/04/05 20:08:07;;;;;;;6.12;3.90;;;;;;;2.09;100.00;97926.38;18297209;32;20077;-56
2023/04/05 20:18:13;;;;;;;4.25;3.30;;;;;;;1.83;100.00;97929.94;18296807;32;20095;-57
2023/04/05 20:28:33;;;;;;;5.37;3.10;;;;;;;1.61;100.00;97932.00;18296402;32;20109;-56
2023/04/05 20:38:40;;;;;;;4.83;3.37;;;;;;;1.40;100.00;97917.03;18295549;32;20375;-56
2023/04/05 20:48:43;;;;;;;4.83;3.37;;;;;;;1.16;100.00;97921.94;18295310;32;20084;-58
2023/04/05 20:58:46;;;;;;;6.80;4.80;;;;;;;0.93;100.00;97920.47;18293909;32;20094;-57
2023/04/05 21:08:48;;;;;;;5.20;3.97;;;;;;;0.76;100.00;97921.84;18294542;32;20114;-56
2023/04/05 21:18:51;;;;;;;13.33;6.77;;;;;;;0.56;100.00;97924.44;18293963;32;20062;-55
2023/04/05 21:28:54;;;;;;;14.13;6.50;;;;;;;0.37;100.00;97928.66;18293395;32;20055;-58
2023/04/05 21:38:57;;;;;;;14.43;6.80;;;;;;;0.24;100.00;97932.91;18293509;32;20101;-56
2023/04/05 21:48:59;;;;;;;14.30;7.10;;;;;;;0.07;100.00;97932.41;18292959;32;20042;-57
2023/04/05 21:59:02;;;;;;;6.57;4.17;;;;;;;-0.05;100.00;97932.12;18292498;32;20442;-57
2023/04/05 22:09:05;;;;;;;5.67;3.60;;;;;;;-0.19;100.00;97930.44;18270888;32;20046;-56
2023/04/05 22:19:12;;;;;;;4.17;2.70;;;;;;;-0.33;100.00;97934.00;18302888;32;20070;-57
2023/04/05 22:29:15;;;;;;;3.83;2.83;;;;;;;-0.46;100.00;97937.38;18302485;32;20054;-57
2023/04/05 22:39:18;;;;;;;5.57;3.27;;;;;;;-0.59;100.00;97943.37;18301462;32;20430;-57
2023/04/05 22:49:21;;;;;;;3.70;2.87;;;;;;;-0.69;100.00;97938.41;18300861;32;20058;-57
2023/04/05 22:59:23;;;;;;;5.40;3.07;;;;;;;-0.82;100.00;97944.44;18300444;32;20156;-55
2023/04/05 23:09:26;;;;;;;4.70;3.07;;;;;;;-0.91;100.00;97942.91;18299939;32;20434;-57
2023/04/05 23:19:28;;;;;;;5.33;3.33;;;;;;;-1.01;100.00;97940.56;18298991;32;20146;-55
2023/04/05 23:29:30;;;;;;;4.30;3.07;;;;;;;-1.11;100.00;97935.56;18298892;32;20076;-56
2023/04/05 23:39:33;;;;;;;6.13;3.10;;;;;;;-1.19;100.00;97935.69;18298441;32;20129;-56
2023/04/05 23:49:35;;;;;;;5.53;3.20;;;;;;;-1.28;100.00;97942.13;18284628;32;20133;-57
2023/04/05 23:59:38;;;;;;;5.50;3.50;;;;;;;-1.35;100.00;97927.97;18283793;32;20403;-55
